Time;durP1;ratioP1;P1;durP2;ratioP2;P2;SDS_P1;SDS_P2;PMS_P1;PMS_P2;Temp;Humidity;BMP_temperature;BMP_pressure;BME280_temperature;BME280_humidity;BME280_pressure;Samples;Min_cycle;Max_cycle;Signal;HPM_P1;HPM_P2
2021/06/15 00:00:47;;;;;;;;;8.50;8.50;;;;;25.78;100.00;101627.47;4899739;28;45832;-69
2021/06/15 00:03:13;;;;;;;;;11.50;9.25;;;;;25.67;100.00;101609.47;4909941;28;45452;-69
2021/06/15 00:05:39;;;;;;;;;11.25;9.25;;;;;25.68;100.00;101618.34;4883147;29;45424;-69
2021/06/15 00:08:05;;;;;;;;;11.25;10.00;;;;;25.61;100.00;101626.72;4909425;28;45522;-69
2021/06/15 00:10:31;;;;;;;;;15.75;15.00;;;;;25.56;100.00;101625.28;4918662;28;45617;-69
2021/06/15 00:12:57;;;;;;;;;21.75;20.00;;;;;25.52;100.00;101619.25;4896722;28;45493;-71
2021/06/15 00:15:24;;;;;;;;;27.75;23.00;;;;;25.39;100.00;101607.63;4902429;28;45350;-69
2021/06/15 00:17:51;;;;;;;;;28.50;24.50;;;;;25.47;100.00;101624.06;4904310;28;45446;-69
2021/06/15 00:20:18;;;;;;;;;22.00;22.00;;;;;25.41;100.00;101620.91;4912979;28;45422;-70
2021/06/15 00:22:44;;;;;;;;;26.75;22.00;;;;;25.35;100.00;101611.47;4896588;28;46158;-70
2021/06/15 00:25:11;;;;;;;;;21.75;20.25;;;;;25.34;100.00;101621.25;4908570;28;45666;-70
2021/06/15 00:27:36;;;;;;;;;25.75;23.25;;;;;25.33;100.00;101626.72;4907284;28;45349;-70
2021/06/15 00:30:04;;;;;;;;;22.50;18.50;;;;;25.17;100.00;101601.91;4899867;28;45571;-70
2021/06/15 00:32:29;;;;;;;;;20.50;18.75;;;;;25.15;100.00;101607.34;4907689;28;45656;-70
2021/06/15 00:34:56;;;;;;;;;20.00;19.25;;;;;25.18;100.00;101615.16;4919512;28;45494;-70
2021/06/15 00:37:21;;;;;;;;;18.00;17.50;;;;;25.12;100.00;101612.00;4893721;28;45478;-70
2021/06/15 00:39:48;;;;;;;;;16.25;15.50;;;;;25.06;100.00;101610.56;4905090;28;45419;-70
2021/06/15 00:42:14;;;;;;;;;14.75;13.75;;;;;25.07;100.00;101622.97;4906661;28;45420;-70
2021/06/15 00:44:40;;;;;;;;;12.25;11.25;;;;;25.02;100.00;101611.72;4901982;28;45338;-70
2021/06/15 00:47:06;;;;;;;;;13.75;11.75;;;;;25.00;100.00;101613.63;4895494;28;45321;-70
2021/06/15 00:49:33;;;;;;;;;11.25;10.25;;;;;24.91;100.00;101606.13;4903014;28;47180;-69
2021/06/15 00:51:59;;;;;;;;;14.00;12.75;;;;;24.91;100.00;101619.50;4898900;28;45466;-70
2021/06/15 00:54:24;;;;;;;;;10.50;10.50;;;;;24.84;100.00;101613.63;4899286;28;45591;-70
2021/06/15 00:56:52;;;;;;;;;12.00;12.00;;;;;24.77;100.00;101604.28;4903857;28;45524;-71
2021/06/15 00:59:18;;;;;;;;;14.00;12.00;;;;;24.79;100.00;101613.06;4918915;28;45660;-70
2021/06/15 01:01:43;;;;;;;;;10.00;10.00;;;;;24.67;100.00;101601.31;4903137;28;45301;-70
2021/06/15 01:04:10;;;;;;;;;11.50;10.75;;;;;24.74;100.00;101616.00;4892982;28;45676;-69
2021/06/15 01:06:44;;;;;;;;;11.25;10.25;;;;;24.72;100.00;101627.75;4914360;28;45768;-70
2021/06/15 01:09:21;;;;;;;;;12.25;11.50;;;;;24.69;100.00;101619.91;4909248;28;45252;-70
2021/06/15 01:11:57;;;;;;;;;10.25;9.75;;;;;24.62;100.00;101614.06;4889326;29;45439;-70
2021/06/15 01:14:44;;;;;;;;;12.00;12.00;;;;;24.49;100.00;101599.72;4912931;28;45387;-70
2021/06/15 01:17:16;;;;;;;;;10.75;10.75;;;;;24.53;100.00;101619.94;4916847;28;46009;-70
2021/06/15 01:20:14;;;;;;;;;10.00;10.00;;;;;24.44;100.00;101620.47;4918475;28;45435;-70
2021/06/15 01:22:43;;;;;;;;;13.00;12.25;;;;;24.43;100.00;101619.59;4892777;28;45822;-69
2021/06/15 01:25:25;;;;;;;;;12.25;10.00;;;;;24.35;100.00;101613.00;4897541;28;45444;-70
2021/06/15 01:28:01;;;;;;;;;10.75;10.25;;;;;24.33;100.00;101625.59;4906170;28;45579;-69
2021/06/15 01:30:43;;;;;;;;;9.00;8.00;;;;;24.26;100.00;101625.06;4898997;28;45543;-69
2021/06/15 01:33:11;;;;;;;;;11.25;10.00;;;;;24.12;100.00;101612.50;4906581;28;45335;-70
2021/06/15 01:35:37;;;;;;;;;11.25;11.00;;;;;24.11;100.00;101631.25;4915654;28;45261;-70
2021/06/15 01:38:11;;;;;;;;;9.50;9.50;;;;;24.02;100.00;101619.31;4909947;28;45436;-69
2021/06/15 01:41:02;;;;;;;;;12.75;11.25;;;;;23.98;100.00;101617.72;4908876;28;45684;-69
2021/06/15 01:43:31;;;;;;;;;12.00;11.00;;;;;23.85;100.00;101606.03;4900364;28;45430;-70
2021/06/15 01:45:59;;;;;;;;;10.25;10.25;;;;;23.85;100.00;101626.53;4902995;28;45421;-70
2021/06/15 01:48:34;;;;;;;;;10.25;9.00;;;;;23.82;100.00;101628.41;4906636;28;45332;-70
2021/06/15 01:51:02;;;;;;;;;9.50;8.25;;;;;23.79;100.00;101627.75;4911424;28;46343;-69
2021/06/15 01:53:30;;;;;;;;;9.75;9.75;;;;;23.74;100.00;101621.78;4902865;29;45586;-70
2021/06/15 01:56:01;;;;;;;;;10.50;9.75;;;;;23.70;100.00;101620.22;4902401;28;45544;-70
2021/06/15 01:58:30;;;;;;;;;11.00;10.00;;;;;23.69;100.00;101622.03;4902986;28;45441;-70
2021/06/15 02:00:56;;;;;;;;;11.50;11.50;;;;;23.66;100.00;101624.00;4902759;29;45489;-69
2021/06/15 02:03:23;;;;;;;;;12.50;11.25;;;;;23.63;100.00;101622.38;4902705;29;45408;-69
2021/06/15 02:05:59;;;;;;;;;13.00;11.00;;;;;23.58;100.00;101620.91;4908407;28;45463;-69
2021/06/15 02:08:43;;;;;;;;;12.25;10.50;;;;;23.47;100.00;101622.31;4908899;28;45360;-69
2021/06/15 02:11:10;;;;;;;;;10.00;9.00;;;;;23.48;100.00;101624.03;4891629;28;45614;-69
2021/06/15 02:13:45;;;;;;;;;10.00;9.00;;;;;23.42;100.00;101620.84;4885557;28;45536;-69
2021/06/15 02:16:11;;;;;;;;;9.00;8.25;;;;;23.42;100.00;101628.84;4902010;28;45519;-69
2021/06/15 02:18:37;;;;;;;;;10.75;10.75;;;;;23.40;100.00;101634.25;4914979;28;45573;-70
2021/06/15 02:21:08;;;;;;;;;9.75;9.50;;;;;23.33;100.00;101626.69;4920125;28;46742;-70
2021/06/15 02:23:35;;;;;;;;;12.75;11.50;;;;;23.30;100.00;101641.00;4920345;28;45746;-70
2021/06/15 02:26:06;;;;;;;;;10.50;10.50;;;;;23.22;100.00;101632.56;4916141;28;45439;-69
2021/06/15 02:28:33;;;;;;;;;11.50;10.50;;;;;23.16;100.00;101627.56;4906930;28;45447;-69
2021/06/15 02:31:01;;;;;;;;;11.50;11.50;;;;;23.07;100.00;101617.38;4918531;28;45504;-69
2021/06/15 02:33:30;;;;;;;;;12.00;10.25;;;;;23.01;100.00;101615.03;4902932;28;45455;-69
2021/06/15 02:36:06;;;;;;;;;10.75;10.75;;;;;23.03;100.00;101637.13;4919046;28;45415;-69
2021/06/15 02:38:36;;;;;;;;;12.75;11.50;;;;;22.90;100.00;101635.09;4914211;28;45413;-69
2021/06/15 02:41:10;;;;;;;;;9.25;8.25;;;;;22.85;100.00;101633.59;4917584;28;46042;-69
2021/06/15 02:43:38;;;;;;;;;9.75;9.25;;;;;22.58;100.00;101610.06;4902174;28;45523;-69
2021/06/15 02:46:09;;;;;;;;;11.00;11.00;;;;;22.77;100.00;101641.97;4885041;28;45374;-69
2021/06/15 02:48:37;;;;;;;;;11.25;9.75;;;;;22.74;100.00;101639.44;4902007;28;45817;-69
2021/06/15 02:51:04;;;;;;;;;10.25;9.25;;;;;22.67;100.00;101632.72;4902153;29;46305;-69
2021/06/15 02:53:59;;;;;;;;;12.25;10.25;;;;;22.62;100.00;101629.41;4888946;29;45318;-68
2021/06/15 02:56:29;;;;;;;;;9.25;9.25;;;;;22.58;100.00;101626.03;4899274;29;46874;-69
2021/06/15 02:58:54;;;;;;;;;11.25;10.25;;;;;22.49;100.00;101620.34;4891434;28;45461;-69
2021/06/15 03:01:20;;;;;;;;;12.00;10.00;;;;;22.47;100.00;101630.19;4902082;28;46054;-69
2021/06/15 03:03:45;;;;;;;;;9.50;9.50;;;;;22.44;100.00;101627.69;4902165;28;45473;-69
2021/06/15 03:06:11;;;;;;;;;10.75;10.00;;;;;22.39;100.00;101627.03;4902220;28;45416;-68
2021/06/15 03:08:39;;;;;;;;;10.00;9.75;;;;;22.33;100.00;101628.19;4902070;28;45224;-68
2021/06/15 03:11:06;;;;;;;;;10.75;10.50;;;;;22.34;100.00;101643.22;4884853;29;47345;-68
2021/06/15 03:13:48;;;;;;;;;11.75;11.75;;;;;22.27;100.00;101637.34;4885121;28;45792;-69
2021/06/15 03:16:18;;;;;;;;;12.00;11.00;;;;;22.21;100.00;101627.03;4902362;28;45435;-69
2021/06/15 03:19:08;;;;;;;;;10.00;10.00;;;;;22.16;100.00;101626.34;4902205;28;45365;-69
2021/06/15 03:21:43;;;;;;;;;10.25;9.25;;;;;22.07;100.00;101617.97;4901203;28;45553;-69
2021/06/15 03:24:16;;;;;;;;;12.25;10.00;;;;;22.06;100.00;101626.88;4901936;28;45421;-69
2021/06/15 03:27:04;;;;;;;;;11.50;9.75;;;;;22.08;100.00;101630.34;4901949;28;45341;-69
2021/06/15 03:29:34;;;;;;;;;11.75;10.25;;;;;21.98;100.00;101621.91;4890955;28;45498;-69
2021/06/15 03:32:05;;;;;;;;;12.00;11.00;;;;;21.99;100.00;101626.28;4884120;28;47232;-69
2021/06/15 03:34:32;;;;;;;;;12.00;12.00;;;;;21.92;100.00;101624.84;4884137;29;45430;-68
2021/06/15 03:36:59;;;;;;;;;13.75;12.00;;;;;21.87;100.00;101630.38;4901307;28;45426;-68
2021/06/15 03:39:30;;;;;;;;;11.00;11.00;;;;;21.78;100.00;101622.84;4901660;28;45253;-69
2021/06/15 03:41:58;;;;;;;;;9.25;9.00;;;;;21.81;100.00;101627.16;4900878;29;45520;-69
2021/06/15 03:44:24;;;;;;;;;13.25;12.00;;;;;21.77;100.00;101614.94;4908532;28;45760;-69
2021/06/15 03:46:53;;;;;;;;;12.75;12.25;;;;;21.79;100.00;101619.25;4913144;28;45391;-69
2021/06/15 03:49:22;;;;;;;;;13.00;11.00;;;;;21.78;100.00;101616.66;4907894;28;45616;-69
2021/06/15 03:51:53;;;;;;;;;14.25;12.75;;;;;21.83;100.00;101631.47;4900473;28;45508;-69
2021/06/15 03:54:21;;;;;;;;;11.50;11.50;;;;;21.79;100.00;101629.88;4895639;28;45457;-68
2021/06/15 03:56:49;;;;;;;;;13.00;12.25;;;;;21.82;100.00;101634.19;4895216;28;45365;-69
2021/06/15 03:59:30;;;;;;;;;11.00;10.00;;;;;21.74;100.00;101615.09;4909365;28;45311;-68
2021/06/15 04:02:00;;;;;;;;;10.00;10.00;;;;;21.81;100.00;101627.16;4912380;28;45619;-70
2021/06/15 04:04:28;;;;;;;;;11.75;9.50;;;;;21.84;100.00;101630.53;4903655;28;45720;-69
2021/06/15 04:06:55;;;;;;;;;12.25;10.00;;;;;21.81;100.00;101621.84;4911354;28;45308;-69
2021/06/15 04:09:25;;;;;;;;;11.00;10.75;;;;;21.83;100.00;101619.97;4907315;28;45519;-69
2021/06/15 04:11:54;;;;;;;;;12.00;10.75;;;;;21.87;100.00;101626.88;4910204;28;45461;-69
2021/06/15 04:14:21;;;;;;;;;13.75;11.00;;;;;21.84;100.00;101621.69;4910291;28;45527;-69
2021/06/15 04:16:48;;;;;;;;;10.75;10.75;;;;;21.85;100.00;101612.78;4909051;28;45381;-69
2021/06/15 04:19:25;;;;;;;;;14.00;11.00;;;;;21.94;100.00;101631.81;4911547;28;45504;-69
2021/06/15 04:21:53;;;;;;;;;11.50;11.25;;;;;21.93;100.00;101630.09;4908276;28;46153;-70
2021/06/15 04:24:23;;;;;;;;;12.25;11.50;;;;;21.96;100.00;101635.28;4908005;28;45457;-69
2021/06/15 04:26:51;;;;;;;;;12.25;12.00;;;;;21.93;100.00;101638.06;4907590;28;45373;-62
2021/06/15 04:29:17;;;;;;;;;12.25;12.25;;;;;21.96;100.00;101639.75;4912882;28;45428;-62
2021/06/15 04:31:43;;;;;;;;;11.00;11.00;;;;;21.91;100.00;101644.38;4906995;28;45189;-62
2021/06/15 04:34:11;;;;;;;;;12.00;11.50;;;;;21.93;100.00;101650.50;4911200;28;45523;-62
2021/06/15 04:36:39;;;;;;;;;12.50;12.00;;;;;21.91;100.00;101653.22;4902165;28;45404;-62
2021/06/15 04:39:13;;;;;;;;;9.25;9.00;;;;;21.90;100.00;101655.97;4910167;28;45520;-62
2021/06/15 04:41:48;;;;;;;;;14.00;12.00;;;;;21.87;100.00;101658.75;4907417;28;45451;-62
2021/06/15 04:44:29;;;;;;;;;10.50;10.50;;;;;21.86;100.00;101660.56;4887633;29;45433;-66
2021/06/15 04:46:57;;;;;;;;;11.75;11.75;;;;;21.89;100.00;101659.56;4889522;28;45449;-66
2021/06/15 04:49:31;;;;;;;;;12.25;11.25;;;;;21.89;100.00;101652.44;4910615;28;45450;-67
2021/06/15 04:52:01;;;;;;;;;13.50;12.75;;;;;21.95;100.00;101656.59;4903297;28;47043;-69
2021/06/15 04:54:31;;;;;;;;;12.00;11.75;;;;;21.91;100.00;101658.53;4883219;29;45245;-67
2021/06/15 04:57:00;;;;;;;;;14.50;13.00;;;;;21.96;100.00;101666.34;4900777;28;45380;-65
2021/06/15 04:59:27;;;;;;;;;13.75;13.00;;;;;21.78;100.00;101641.47;4900675;28;45427;-66
2021/06/15 05:01:53;;;;;;;;;11.50;11.00;;;;;21.93;100.00;101663.78;4907836;28;45729;-66
2021/06/15 05:04:19;;;;;;;;;13.75;13.25;;;;;22.03;100.00;101683.72;4904613;28;45371;-65
2021/06/15 05:06:46;;;;;;;;;14.75;13.00;;;;;22.01;100.00;101685.59;4899503;28;45891;-66
2021/06/15 05:09:15;;;;;;;;;11.00;11.00;;;;;22.09;100.00;101699.41;4898206;28;45962;-66
2021/06/15 05:11:42;;;;;;;;;13.00;12.25;;;;;22.09;100.00;101702.06;4906306;28;46590;-68
2021/06/15 05:14:11;;;;;;;;;24.50;24.00;;;;;22.15;100.00;101699.13;4907811;28;45627;-69
2021/06/15 05:16:38;;;;;;;;;19.25;19.25;;;;;22.10;100.00;101687.84;4887748;28;45387;-70
2021/06/15 05:19:04;;;;;;;;;12.25;11.50;;;;;22.16;100.00;101699.97;4908559;28;45391;-67
2021/06/15 05:21:40;;;;;;;;;14.00;12.25;;;;;22.15;100.00;101699.13;4904662;28;45628;-67
2021/06/15 05:24:12;;;;;;;;;13.00;13.00;;;;;22.16;100.00;101697.31;4904495;28;45459;-67
2021/06/15 05:26:37;;;;;;;;;14.00;13.25;;;;;22.15;100.00;101696.44;4904677;28;45421;-67
2021/06/15 05:29:03;;;;;;;;;13.75;12.75;;;;;22.14;100.00;101702.72;4900309;28;45436;-69
2021/06/15 05:31:28;;;;;;;;;16.75;14.25;;;;;22.17;100.00;101699.91;4904371;28;45494;-68
2021/06/15 05:33:55;;;;;;;;;17.25;14.00;;;;;22.12;100.00;101699.25;4907337;28;45329;-68
2021/06/15 05:36:20;;;;;;;;;14.00;14.00;;;;;22.08;100.00;101711.00;4885961;28;45494;-67
2021/06/15 05:38:46;;;;;;;;;15.00;14.00;;;;;21.97;100.00;101702.63;4905715;28;45444;-67
2021/06/15 05:41:12;;;;;;;;;14.50;13.25;;;;;22.03;100.00;101715.63;4915884;28;45528;-65
2021/06/15 05:43:37;;;;;;;;;15.25;14.00;;;;;22.08;100.00;101712.78;4899602;29;45333;-64
2021/06/15 05:46:03;;;;;;;;;11.00;11.00;;;;;22.12;100.00;101704.59;4899441;28;45300;-65
2021/06/15 05:48:28;;;;;;;;;16.00;14.75;;;;;22.16;100.00;101698.19;4899521;29;45173;-64
2021/06/15 05:50:54;;;;;;;;;11.00;10.50;;;;;22.29;100.00;101709.97;4899377;29;46448;-64
2021/06/15 05:53:19;;;;;;;;;19.00;14.75;;;;;22.39;100.00;101715.72;4899395;29;45483;-65
2021/06/15 05:55:46;;;;;;;;;14.50;13.50;;;;;22.46;100.00;101709.19;4899814;28;45350;-67
2021/06/15 05:58:11;;;;;;;;;15.25;13.50;;;;;22.51;100.00;101695.63;4899654;29;45499;-66
2021/06/15 06:00:37;;;;;;;;;17.00;13.50;;;;;22.51;100.00;101696.50;4899433;29;46478;-72
2021/06/15 06:03:02;;;;;;;;;13.50;13.00;;;;;22.54;100.00;101701.66;4899243;28;45512;-71
2021/06/15 06:08:15;;;;;;;;;14.75;13.25;;;;;22.68;100.00;101706.34;4901551;28;45501;-72
2021/06/15 06:10:40;;;;;;;;;14.25;14.00;;;;;22.70;100.00;101707.13;4888480;28;45656;-71
2021/06/15 06:13:07;;;;;;;;;13.00;13.00;;;;;22.65;100.00;101711.81;4900071;28;45272;-73
2021/06/15 06:15:33;;;;;;;;;13.00;13.00;;;;;22.66;100.00;101710.88;4900208;28;45419;-72
2021/06/15 06:18:17;;;;;;;;;16.00;15.00;;;;;22.67;100.00;101703.75;4900589;28;45341;-73
2021/06/15 06:20:42;;;;;;;;;12.50;12.50;;;;;22.68;100.00;101695.69;4898782;28;45591;-71
2021/06/15 06:23:09;;;;;;;;;13.50;12.75;;;;;22.71;100.00;101698.19;4900026;28;45385;-71
2021/06/15 06:25:35;;;;;;;;;12.00;11.75;;;;;22.69;100.00;101683.22;4901365;28;45274;-71
2021/06/15 06:28:01;;;;;;;;;15.25;12.25;;;;;22.77;100.00;101689.03;4900543;28;45805;-73
2021/06/15 06:30:27;;;;;;;;;12.75;10.00;;;;;22.79;100.00;101688.00;4901396;28;45588;-72
2021/06/15 06:32:53;;;;;;;;;10.00;9.00;;;;;22.88;100.00;101689.41;4903369;28;45389;-72
2021/06/15 06:35:18;;;;;;;;;12.75;12.00;;;;;22.92;100.00;101694.47;4903449;28;45372;-73
2021/06/15 06:37:47;;;;;;;;;12.00;10.25;;;;;23.00;100.00;101696.75;4904550;28;45301;-72
2021/06/15 06:40:13;;;;;;;;;12.50;12.50;;;;;23.10;100.00;101703.34;4902932;28;45491;-73
2021/06/15 06:42:38;;;;;;;;;14.25;13.25;;;;;23.19;100.00;101707.34;4901893;28;45522;-73
2021/06/15 06:45:04;;;;;;;;;16.75;15.25;;;;;23.30;100.00;101714.75;4902130;29;45278;-73
2021/06/15 06:47:29;;;;;;;;;14.25;14.00;;;;;23.32;100.00;101708.44;4902247;28;45556;-73
2021/06/15 06:49:55;;;;;;;;;13.00;11.25;;;;;23.38;100.00;101713.44;4901806;28;45355;-72
2021/06/15 06:52:20;;;;;;;;;14.25;13.75;;;;;23.42;100.00;101704.34;4902132;29;45385;-72
2021/06/15 06:54:45;;;;;;;;;14.00;12.75;;;;;23.55;100.00;101703.69;4884769;28;45375;-72
2021/06/15 06:57:11;;;;;;;;;16.00;15.25;;;;;23.63;100.00;101710.38;4902497;28;45382;-72
2021/06/15 06:59:36;;;;;;;;;14.25;13.00;;;;;23.53;100.00;101683.28;4901406;28;45568;-72
2021/06/15 07:02:02;;;;;;;;;14.00;12.25;;;;;23.76;100.00;101700.78;4901574;29;45427;-73
2021/06/15 07:04:27;;;;;;;;;14.00;13.25;;;;;23.80;100.00;101709.47;4901975;28;45364;-72
2021/06/15 07:06:53;;;;;;;;;11.75;10.00;;;;;23.90;100.00;101701.81;4902004;28;45321;-72
2021/06/15 07:09:18;;;;;;;;;14.25;13.50;;;;;23.89;100.00;101687.63;4901632;28;46228;-72
2021/06/15 07:11:44;;;;;;;;;17.00;14.75;;;;;23.94;100.00;101677.53;4901613;28;45300;-73
2021/06/15 07:14:09;;;;;;;;;14.00;13.00;;;;;24.09;100.00;101697.19;4901731;28;45405;-73
2021/06/15 07:16:34;;;;;;;;;14.00;13.75;;;;;24.17;100.00;101700.28;4901933;29;45584;-72
2021/06/15 07:19:00;;;;;;;;;15.75;14.25;;;;;24.20;100.00;101696.56;4901440;28;46476;-72
2021/06/15 07:21:25;;;;;;;;;14.25;13.25;;;;;24.32;100.00;101701.28;4903334;28;45762;-72
2021/06/15 07:23:51;;;;;;;;;19.25;15.75;;;;;24.35;100.00;101693.94;4904777;28;45351;-73
2021/06/15 07:26:19;;;;;;;;;18.75;16.75;;;;;24.52;100.00;101705.50;4903233;28;45306;-72
2021/06/15 07:28:45;;;;;;;;;11.75;10.75;;;;;24.53;100.00;101688.50;4904468;28;46399;-73
2021/06/15 07:31:10;;;;;;;;;15.25;13.50;;;;;24.58;100.00;101697.13;4902998;28;45371;-73
2021/06/15 07:33:36;;;;;;;;;14.50;14.50;;;;;24.57;100.00;101688.25;4901232;28;45417;-71
2021/06/15 07:36:01;;;;;;;;;13.00;12.50;;;;;24.63;100.00;101690.56;4887483;29;45490;-71
2021/06/15 07:38:26;;;;;;;;;15.00;13.00;;;;;24.67;100.00;101692.13;4902722;28;46116;-72
2021/06/15 07:40:52;;;;;;;;;15.00;13.00;;;;;24.64;100.00;101689.59;4915895;28;45249;-72
2021/06/15 07:43:17;;;;;;;;;14.75;14.00;;;;;24.65;100.00;101688.66;4888116;28;45306;-72
2021/06/15 07:45:43;;;;;;;;;15.25;12.50;;;;;24.68;100.00;101691.16;4901546;28;45328;-72
2021/06/15 07:48:08;;;;;;;;;14.25;12.75;;;;;24.62;100.00;101680.81;4900749;28;45414;-72
2021/06/15 07:50:34;;;;;;;;;13.50;13.50;;;;;24.67;100.00;101685.91;4901277;28;45435;-72
2021/06/15 07:53:00;;;;;;;;;13.50;12.75;;;;;24.67;100.00;101684.09;4901315;28;45392;-71
2021/06/15 07:55:25;;;;;;;;;17.00;14.50;;;;;24.68;100.00;101685.84;4901488;28;45302;-72
2021/06/15 07:57:51;;;;;;;;;14.50;14.50;;;;;24.71;100.00;101693.66;4883368;29;47586;-71
2021/06/15 08:00:17;;;;;;;;;14.75;13.00;;;;;24.76;100.00;101693.38;4901090;28;45276;-71
2021/06/15 08:02:44;;;;;;;;;16.00;14.00;;;;;24.83;100.00;101699.22;4900808;28;45377;-72
2021/06/15 08:05:11;;;;;;;;;14.00;13.25;;;;;24.83;100.00;101683.19;4901050;28;45220;-71
2021/06/15 08:07:37;;;;;;;;;14.75;14.50;;;;;24.91;100.00;101687.16;4900794;29;45344;-71
2021/06/15 08:10:03;;;;;;;;;14.25;14.00;;;;;25.02;100.00;101695.41;4900365;28;45474;-72
2021/06/15 08:12:28;;;;;;;;;15.50;14.00;;;;;25.12;100.00;101692.16;4901117;29;45416;-72
2021/06/15 08:14:54;;;;;;;;;17.50;15.25;;;;;25.12;100.00;101682.38;4883844;29;45425;-72
2021/06/15 08:17:19;;;;;;;;;15.00;13.25;;;;;25.22;100.00;101693.34;4900567;29;46530;-72
2021/06/15 08:19:45;;;;;;;;;12.75;12.25;;;;;25.32;100.00;101695.38;4892816;28;45473;-72
2021/06/15 08:22:10;;;;;;;;;14.50;13.75;;;;;25.42;100.00;101689.47;4915837;28;45321;-72
2021/06/15 08:24:35;;;;;;;;;16.00;15.50;;;;;25.49;100.00;101688.13;4917809;28;45480;-72
2021/06/15 08:27:01;;;;;;;;;17.75;14.75;;;;;25.53;100.00;101685.16;4915256;28;45293;-71
2021/06/15 08:29:27;;;;;;;;;17.50;16.00;;;;;25.63;100.00;101680.97;4917762;28;45317;-72
2021/06/15 08:31:52;;;;;;;;;16.00;14.75;;;;;25.68;100.00;101683.41;4915736;28;45334;-72
2021/06/15 08:34:18;;;;;;;;;16.00;14.00;;;;;25.78;100.00;101676.50;4917454;28;45417;-72
2021/06/15 08:36:43;;;;;;;;;14.25;12.25;;;;;25.96;100.00;101685.19;4917403;28;45581;-72
2021/06/15 08:39:09;;;;;;;;;14.00;13.75;;;;;26.11;100.00;101680.69;4900253;28;46457;-72
2021/06/15 08:41:35;;;;;;;;;18.50;16.00;;;;;26.25;100.00;101676.16;4913645;28;45495;-71
2021/06/15 08:44:06;;;;;;;;;17.25;16.00;;;;;26.46;100.00;101681.06;4900817;28;45457;-72
2021/06/15 08:46:34;;;;;;;;;14.75;13.75;;;;;26.62;100.00;101684.47;4900010;28;46709;-71
2021/06/15 08:49:01;;;;;;;;;15.75;13.75;;;;;26.82;100.00;101685.81;4899867;29;45628;-71
2021/06/15 08:51:27;;;;;;;;;13.50;12.50;;;;;27.05;100.00;101686.97;4900229;28;45403;-71
2021/06/15 08:53:53;;;;;;;;;16.00;16.00;;;;;27.24;100.00;101687.41;4882401;29;45517;-73
2021/06/15 08:56:24;;;;;;;;;19.00;16.25;;;;;27.35;100.00;101678.63;4899942;28;46573;-72
2021/06/15 08:59:05;;;;;;;;;19.00;16.50;;;;;27.48;100.00;101679.47;4899975;29;45594;-73
2021/06/15 09:01:31;;;;;;;;;12.00;12.00;;;;;27.62;100.00;101678.53;4900074;29;45488;-72
2021/06/15 09:03:57;;;;;;;;;17.50;14.00;;;;;27.87;100.00;101674.97;4900613;29;45416;-72
2021/06/15 09:06:22;;;;;;;;;17.25;15.25;;;;;28.16;100.00;101675.53;4899808;28;46304;-73
2021/06/15 09:08:54;;;;;;;;;18.50;13.25;;;;;28.41;100.00;101670.09;4899746;29;45333;-72
2021/06/15 09:11:21;;;;;;;;;14.00;13.00;;;;;28.63;100.00;101658.59;4900156;29;45499;-71
2021/06/15 09:13:47;;;;;;;;;14.00;13.00;;;;;29.02;100.00;101678.91;4903654;28;45368;-73
2021/06/15 09:16:36;;;;;;;;;19.25;15.75;;;;;29.24;100.00;101670.03;4917480;28;45422;-72
2021/06/15 09:19:14;;;;;;;;;12.75;12.50;;;;;29.52;100.00;101675.00;4893843;28;45666;-72
2021/06/15 09:21:42;;;;;;;;;20.00;16.75;;;;;29.96;100.00;101667.03;4916913;28;45389;-72
2021/06/15 09:24:17;;;;;;;;;16.25;14.25;;;;;30.54;100.00;101668.47;4894094;28;45294;-72
2021/06/15 09:27:10;;;;;;;;;14.75;13.50;;;;;31.29;99.02;101675.63;4916700;28;45491;-72
2021/06/15 09:29:41;;;;;;;;;15.75;15.75;;;;;31.85;94.83;101665.25;4899593;28;45370;-73
2021/06/15 09:32:13;;;;;;;;;13.00;12.00;;;;;32.31;92.32;101657.53;4916023;28;45412;-73
2021/06/15 09:34:56;;;;;;;;;16.75;14.25;;;;;32.96;89.30;101681.19;4917759;28;45495;-74
2021/06/15 09:37:42;;;;;;;;;17.75;15.50;;;;;33.60;85.57;101683.22;4916079;28;46420;-72
2021/06/15 09:40:18;;;;;;;;;12.00;11.75;;;;;34.24;89.37;101671.47;4917436;28;45446;-72
2021/06/15 09:43:02;;;;;;;;;12.75;12.50;;;;;34.97;86.06;101674.06;4886743;29;45268;-71
2021/06/15 09:45:53;;;;;;;;;12.50;11.75;;;;;35.74;78.70;101673.19;4899705;29;45395;-72
2021/06/15 09:48:23;;;;;;;;;12.00;12.00;;;;;36.25;77.77;101671.34;4882497;29;45446;-72
2021/06/15 09:50:51;;;;;;;;;12.75;12.25;;;;;36.79;73.97;101669.91;4899624;28;45632;-72
2021/06/15 09:53:30;;;;;;;;;11.50;11.50;;;;;37.38;73.86;101669.69;4897350;28;45310;-72
2021/06/15 09:55:59;;;;;;;;;10.00;9.00;;;;;37.83;71.71;101674.50;4908597;28;45341;-73
2021/06/15 09:58:42;;;;;;;;;8.75;8.50;;;;;38.26;70.46;101678.56;4910834;28;46478;-72
2021/06/15 10:01:08;;;;;;;;;11.25;9.75;;;;;38.54;69.36;101673.41;4907694;28;45313;-72
2021/06/15 10:03:34;;;;;;;;;14.00;12.75;;;;;38.51;65.71;101668.31;4894277;28;45523;-72
2021/06/15 10:05:59;;;;;;;;;11.00;9.75;;;;;38.30;64.62;101674.41;4894718;28;45750;-73
2021/06/15 10:08:42;;;;;;;;;9.00;8.50;;;;;37.95;61.70;101677.66;4912417;28;45692;-73
2021/06/15 10:11:08;;;;;;;;;10.75;10.00;;;;;38.00;65.49;101670.63;4911785;28;45437;-73
2021/06/15 10:13:35;;;;;;;;;9.00;9.00;;;;;38.51;62.86;101668.31;4905608;28;45283;-73
2021/06/15 10:16:00;;;;;;;;;9.75;9.25;;;;;39.06;60.51;101669.88;4914129;28;45368;-72
2021/06/15 10:18:26;;;;;;;;;9.75;9.25;;;;;39.43;59.69;101660.81;4910683;28;47549;-73
2021/06/15 10:20:51;;;;;;;;;9.00;9.00;;;;;39.45;55.73;101655.16;4915537;28;45550;-73
2021/06/15 10:23:17;;;;;;;;;11.75;10.75;;;;;39.07;55.62;101660.69;4910098;28;45359;-72
2021/06/15 10:25:43;;;;;;;;;9.75;9.75;;;;;38.28;57.89;101668.28;4914939;28;45257;-73
2021/06/15 10:28:13;;;;;;;;;11.00;10.00;;;;;37.40;59.67;101673.94;4912029;28;45579;-73
2021/06/15 10:30:40;;;;;;;;;10.00;9.75;;;;;36.79;60.28;101661.75;4915997;28;45403;-73
2021/06/15 10:33:14;;;;;;;;;9.50;8.25;;;;;36.45;66.19;101664.63;4917928;28;45509;-74
2021/06/15 10:36:01;;;;;;;;;7.75;7.00;;;;;36.62;60.87;101660.00;4912892;28;45354;-73
2021/06/15 10:38:27;;;;;;;;;9.00;9.00;;;;;37.05;60.05;101663.41;4916559;28;46462;-73
2021/06/15 10:40:55;;;;;;;;;7.75;7.75;;;;;37.47;55.57;101665.91;4919347;28;45476;-73
2021/06/15 10:43:22;;;;;;;;;6.00;6.00;;;;;37.81;54.07;101665.66;4888940;29;45399;-73
2021/06/15 10:46:00;;;;;;;;;6.75;6.00;;;;;38.22;53.19;101662.69;4901880;28;45400;-73
2021/06/15 10:48:29;;;;;;;;;6.75;6.25;;;;;38.77;51.03;101658.91;4901347;28;46455;-73
2021/06/15 10:50:57;;;;;;;;;6.50;6.25;;;;;39.25;50.75;101652.13;4884335;29;45976;-72
2021/06/15 10:53:41;;;;;;;;;7.25;6.75;;;;;39.72;54.83;101659.94;4901759;29;45364;-72
2021/06/15 10:56:08;;;;;;;;;9.75;8.75;;;;;39.84;55.69;101652.13;4902010;29;45447;-71
2021/06/15 10:58:43;;;;;;;;;15.75;15.00;;;;;40.08;56.73;101648.22;4901372;28;45644;-71
2021/06/15 11:01:14;;;;;;;;;7.75;7.75;;;;;40.17;52.78;101649.78;4901491;29;45501;-71
2021/06/15 11:03:46;;;;;;;;;20.25;18.00;;;;;40.33;50.86;101651.41;4901327;28;45394;-72
2021/06/15 11:06:13;;;;;;;;;11.75;10.50;;;;;40.19;52.71;101646.84;4901507;29;45400;-73
2021/06/15 11:08:39;;;;;;;;;9.50;9.50;;;;;40.32;50.46;101644.25;4900885;28;45589;-73
2021/06/15 11:11:24;;;;;;;;;11.75;11.50;;;;;40.71;49.70;101639.13;4911483;28;45624;-73
2021/06/15 11:13:55;;;;;;;;;10.25;10.25;;;;;40.77;48.22;101642.16;4919423;28;45454;-74
2021/06/15 11:16:35;;;;;;;;;9.00;8.75;;;;;40.38;49.55;101638.00;4919771;28;45459;-74